Time;durP1;ratioP1;P1;durP2;ratioP2;P2;SDS_P1;SDS_P2;PMS_P1;PMS_P2;Temp;Humidity;BMP_temperature;BMP_pressure;BME280_temperature;BME280_humidity;BME280_pressure;Samples;Min_cycle;Max_cycle;Signal;HPM_P1;HPM_P2
2024/03/20 00:00:43;;;;;;;5.90;5.37;;;9.20;99.90;;;;;;4943300;29;20186;-83
2024/03/20 00:03:09;;;;;;;5.93;5.33;;;8.70;99.90;;;;;;4940132;29;20253;-83
2024/03/20 00:05:34;;;;;;;5.73;5.17;;;9.20;99.90;;;;;;4937787;28;20197;-85
2024/03/20 00:08:00;;;;;;;6.33;4.40;;;9.20;99.90;;;;;;4938147;28;20204;-84
2024/03/20 00:10:26;;;;;;;6.53;4.70;;;9.30;99.90;;;;;;4954390;28;20198;-83
2024/03/20 00:12:53;;;;;;;6.18;5.10;;;9.10;99.90;;;;;;4937929;28;20197;-84
2024/03/20 00:15:19;;;;;;;6.10;4.82;;;9.00;99.90;;;;;;4935861;28;20269;-84
2024/03/20 00:17:47;;;;;;;5.53;4.93;;;9.20;99.90;;;;;;4939349;29;20313;-83
2024/03/20 00:20:12;;;;;;;9.57;5.88;;;9.20;99.90;;;;;;4937380;29;20429;-83
2024/03/20 00:22:38;;;;;;;7.90;5.40;;;9.40;99.90;;;;;;4938849;28;20196;-84
2024/03/20 00:25:04;;;;;;;6.07;4.97;;;8.80;99.90;;;;;;4953300;28;20191;-84
2024/03/20 00:27:29;;;;;;;7.00;4.95;;;9.00;99.90;;;;;;4955481;28;20202;-84
2024/03/20 00:29:55;;;;;;;5.90;5.30;;;9.00;99.90;;;;;;4936383;29;20192;-83
2024/03/20 00:32:21;;;;;;;6.60;5.20;;;9.00;99.90;;;;;;4936904;29;20193;-83
2024/03/20 00:34:46;;;;;;;5.00;4.60;;;8.90;99.90;;;;;;4936608;28;20220;-84
2024/03/20 00:37:12;;;;;;;5.73;5.23;;;9.20;99.90;;;;;;4934347;28;20284;-84
2024/03/20 00:39:37;;;;;;;5.90;5.17;;;9.30;99.90;;;;;;4937370;29;20193;-83
2024/03/20 00:42:04;;;;;;;8.83;5.83;;;8.90;99.90;;;;;;4937974;29;20197;-84
2024/03/20 00:44:30;;;;;;;6.10;5.50;;;8.90;99.90;;;;;;4928958;29;20189;-84
2024/03/20 00:46:55;;;;;;;6.57;5.00;;;9.10;99.90;;;;;;4934690;29;20209;-84
2024/03/20 00:49:21;;;;;;;5.60;5.10;;;8.60;99.90;;;;;;4954270;29;20193;-85
2024/03/20 00:51:46;;;;;;;6.10;5.30;;;9.00;99.90;;;;;;4934733;29;20182;-84
2024/03/20 00:54:12;;;;;;;5.47;4.97;;;8.70;99.90;;;;;;4936762;29;20190;-84
2024/03/20 00:56:37;;;;;;;5.80;4.97;;;8.80;99.90;;;;;;4937807;29;20297;-84
2024/03/20 00:59:04;;;;;;;6.67;5.30;;;8.90;99.90;;;;;;4933600;29;20658;-85
2024/03/20 01:01:30;;;;;;;7.43;5.82;;;8.80;99.90;;;;;;4937049;29;20181;-84
2024/03/20 01:03:55;;;;;;;7.10;4.97;;;8.00;99.90;;;;;;4941585;28;20244;-84
2024/03/20 01:06:21;;;;;;;10.13;5.73;;;8.30;99.90;;;;;;4942406;29;20211;-84
2024/03/20 01:08:46;;;;;;;7.53;5.70;;;8.60;99.90;;;;;;4940373;28;20690;-84
2024/03/20 01:11:12;;;;;;;8.97;5.47;;;8.50;99.90;;;;;;4940649;28;20200;-84
2024/03/20 01:13:38;;;;;;;5.50;5.00;;;9.10;99.90;;;;;;4941905;28;20272;-84
2024/03/20 01:16:04;;;;;;;6.27;4.90;;;8.70;99.90;;;;;;4940397;28;20484;-84
2024/03/20 01:18:30;;;;;;;5.93;5.33;;;8.70;99.90;;;;;;4941473;28;20197;-84
2024/03/20 01:20:55;;;;;;;6.00;5.40;;;8.70;99.90;;;;;;4942581;29;20424;-84
2024/03/20 01:23:21;;;;;;;9.80;5.63;;;8.60;99.90;;;;;;4940439;28;20989;-83
2024/03/20 01:25:47;;;;;;;5.47;4.73;;;8.40;99.90;;;;;;4941278;28;20201;-82
2024/03/20 01:28:12;;;;;;;6.67;5.70;;;8.50;99.90;;;;;;4941521;29;20225;-83
2024/03/20 01:30:38;;;;;;;8.00;7.03;;;8.80;99.90;;;;;;4940548;28;20189;-83
2024/03/20 01:33:03;;;;;;;7.40;6.00;;;8.00;99.90;;;;;;4941243;29;20248;-84
2024/03/20 01:35:29;;;;;;;6.33;5.67;;;8.40;99.90;;;;;;4940737;28;20683;-84
2024/03/20 01:37:54;;;;;;;6.83;5.97;;;8.20;99.90;;;;;;4939454;29;20576;-84
2024/03/20 01:40:20;;;;;;;6.20;5.60;;;8.20;99.90;;;;;;4941014;29;20181;-84
2024/03/20 01:42:45;;;;;;;6.70;6.00;;;8.10;99.90;;;;;;4938040;29;20185;-84
2024/03/20 01:45:20;;;;;;;7.33;5.80;;;7.70;99.90;;;;;;4939772;29;20192;-84
2024/03/20 01:47:46;;;;;;;8.77;6.22;;;8.20;99.90;;;;;;4952597;29;20195;-84
2024/03/20 01:50:13;;;;;;;7.43;6.20;;;8.30;99.90;;;;;;4940295;29;20189;-84
2024/03/20 01:52:49;;;;;;;6.28;5.38;;;8.70;99.90;;;;;;4938257;29;20181;-84
2024/03/20 01:55:15;;;;;;;6.03;5.30;;;8.30;99.90;;;;;;4952975;28;20185;-84
2024/03/20 01:57:41;;;;;;;6.30;5.70;;;7.90;99.90;;;;;;4939042;28;20217;-84
2024/03/20 02:00:08;;;;;;;6.47;5.50;;;8.00;99.90;;;;;;4938263;29;20431;-84
2024/03/20 02:02:34;;;;;;;8.70;6.40;;;8.10;99.90;;;;;;4939191;29;20224;-84
2024/03/20 02:04:59;;;;;;;7.03;6.33;;;7.70;99.90;;;;;;4940194;29;20654;-84
2024/03/20 02:07:25;;;;;;;6.75;5.90;;;7.70;99.90;;;;;;4937698;29;20968;-84
2024/03/20 02:09:51;;;;;;;6.40;5.80;;;8.20;99.90;;;;;;4937770;29;20192;-84
2024/03/20 02:12:16;;;;;;;7.70;5.77;;;7.70;99.90;;;;;;4933764;29;20196;-83
2024/03/20 02:14:42;;;;;;;7.63;6.27;;;7.80;99.90;;;;;;4937953;29;20188;-83
2024/03/20 02:17:08;;;;;;;7.67;6.10;;;7.60;99.90;;;;;;4935875;29;20208;-83
2024/03/20 02:19:33;;;;;;;7.43;6.17;;;7.80;99.90;;;;;;4939502;29;20621;-83
2024/03/20 02:21:59;;;;;;;6.70;6.10;;;7.90;99.90;;;;;;4956682;28;20189;-83
2024/03/20 02:24:24;;;;;;;7.33;6.53;;;8.10;99.90;;;;;;4939302;29;20206;-83
2024/03/20 02:26:50;;;;;;;7.83;6.50;;;7.90;99.90;;;;;;4937433;29;20279;-83
2024/03/20 02:29:15;;;;;;;5.83;5.20;;;8.10;99.90;;;;;;4938500;29;20177;-84
2024/03/20 02:31:41;;;;;;;9.30;6.50;;;8.00;99.90;;;;;;4939080;29;20333;-84
2024/03/20 02:34:06;;;;;;;7.80;6.03;;;7.80;99.90;;;;;;4939357;29;20672;-84
2024/03/20 02:36:32;;;;;;;7.60;6.30;;;7.60;99.90;;;;;;4939882;29;20213;-84
2024/03/20 02:38:57;;;;;;;8.43;6.50;;;7.60;99.90;;;;;;4951149;28;20304;-83
2024/03/20 02:41:23;;;;;;;6.70;6.10;;;7.30;99.90;;;;;;4938115;29;20272;-84
2024/03/20 02:43:49;;;;;;;7.65;6.30;;;8.20;99.90;;;;;;4937407;28;20185;-84
2024/03/20 02:46:14;;;;;;;6.27;5.67;;;8.30;99.90;;;;;;4939297;29;20220;-83
2024/03/20 02:48:40;;;;;;;6.70;5.90;;;8.00;99.90;;;;;;4937103;29;20185;-84
2024/03/20 02:51:05;;;;;;;8.80;6.00;;;7.80;99.90;;;;;;4935149;29;20193;-84
2024/03/20 02:53:31;;;;;;;7.10;6.33;;;8.10;99.90;;;;;;4935088;29;20193;-84
2024/03/20 02:55:56;;;;;;;6.60;6.00;;;7.50;99.90;;;;;;4938354;28;20709;-84
2024/03/20 02:58:22;;;;;;;7.63;6.93;;;7.80;99.90;;;;;;4939113;29;20271;-84
2024/03/20 03:00:47;;;;;;;9.37;7.47;;;7.90;99.90;;;;;;4936259;28;20231;-84
2024/03/20 03:03:13;;;;;;;8.60;7.37;;;7.30;99.90;;;;;;4938308;29;20204;-83
2024/03/20 03:05:38;;;;;;;7.10;6.17;;;7.60;99.90;;;;;;4937615;28;20201;-84
2024/03/20 03:08:04;;;;;;;7.27;6.57;;;8.10;99.90;;;;;;4940048;29;20720;-84
2024/03/20 03:10:30;;;;;;;7.38;6.68;;;7.80;99.90;;;;;;4936398;28;20194;-83
2024/03/20 03:12:56;;;;;;;9.88;7.63;;;7.30;99.90;;;;;;4935222;29;20557;-83
2024/03/20 03:15:22;;;;;;;9.70;6.90;;;7.60;99.90;;;;;;4937412;28;20215;-83
2024/03/20 03:17:52;;;;;;;8.10;6.30;;;8.00;99.90;;;;;;4937966;28;20212;-84
2024/03/20 03:20:19;;;;;;;8.48;7.68;;;7.70;99.90;;;;;;4935592;29;20946;-84
2024/03/20 03:22:46;;;;;;;7.93;7.13;;;7.30;99.90;;;;;;4934741;28;20189;-83
2024/03/20 03:25:12;;;;;;;8.40;7.30;;;8.10;99.90;;;;;;4937493;29;20208;-84
2024/03/20 03:27:39;;;;;;;7.50;6.70;;;7.30;99.90;;;;;;4936808;28;20228;-83
2024/03/20 03:30:08;;;;;;;7.80;6.70;;;7.80;99.90;;;;;;4953556;28;20221;-83
2024/03/20 03:32:34;;;;;;;7.43;6.72;;;7.90;99.90;;;;;;4953609;28;20185;-83
2024/03/20 03:34:59;;;;;;;7.35;6.53;;;7.80;99.90;;;;;;4937594;28;20193;-83
2024/03/20 03:37:25;;;;;;;7.23;6.53;;;7.70;99.90;;;;;;4937381;29;20228;-84
2024/03/20 03:39:51;;;;;;;8.27;7.47;;;7.90;99.90;;;;;;4936591;29;20216;-84
2024/03/20 03:42:18;;;;;;;8.52;7.72;;;8.10;99.90;;;;;;4936235;29;20189;-83
2024/03/20 03:44:43;;;;;;;9.02;7.30;;;8.20;99.90;;;;;;4934725;28;20619;-84
2024/03/20 03:47:09;;;;;;;9.30;8.13;;;8.20;99.90;;;;;;4936688;29;20295;-84
2024/03/20 03:49:35;;;;;;;8.30;7.47;;;7.90;99.90;;;;;;4936486;28;20208;-84
2024/03/20 03:52:00;;;;;;;8.20;7.07;;;7.80;99.90;;;;;;4935950;29;20233;-83
2024/03/20 03:54:26;;;;;;;9.77;7.57;;;7.70;99.90;;;;;;4935108;29;20281;-83
2024/03/20 03:56:52;;;;;;;8.23;7.20;;;7.80;99.90;;;;;;4953384;28;20252;-82
2024/03/20 03:59:18;;;;;;;9.00;8.10;;;7.60;99.90;;;;;;4938245;28;20422;-83
2024/03/20 04:01:45;;;;;;;9.43;8.40;;;7.80;99.90;;;;;;4934349;29;20184;-84
2024/03/20 04:04:11;;;;;;;8.85;7.97;;;7.90;99.90;;;;;;4932784;29;20181;-83
2024/03/20 04:06:36;;;;;;;9.83;7.90;;;8.20;99.90;;;;;;4934749;29;20208;-84
2024/03/20 04:09:02;;;;;;;9.00;8.10;;;7.90;99.90;;;;;;4936997;28;20200;-84
2024/03/20 04:11:27;;;;;;;7.77;7.07;;;8.00;99.90;;;;;;4934418;29;20185;-84
2024/03/20 04:13:53;;;;;;;7.80;6.97;;;7.80;99.90;;;;;;4947913;28;20600;-83
2024/03/20 04:16:18;;;;;;;8.57;7.77;;;7.80;99.90;;;;;;4934638;29;20686;-82
2024/03/20 04:18:44;;;;;;;9.80;8.30;;;8.00;99.90;;;;;;4932094;29;20192;-84
2024/03/20 04:21:10;;;;;;;11.82;7.10;;;7.90;99.90;;;;;;4930666;29;20687;-83
2024/03/20 04:23:36;;;;;;;8.40;7.60;;;7.90;99.90;;;;;;4933681;29;20233;-82
2024/03/20 04:26:01;;;;;;;11.00;8.33;;;8.00;99.90;;;;;;4932127;29;20208;-83
2024/03/20 04:28:27;;;;;;;9.30;8.40;;;7.90;99.90;;;;;;4934852;29;20701;-83
2024/03/20 04:30:52;;;;;;;9.47;7.30;;;7.50;99.90;;;;;;4932690;28;20220;-84
2024/03/20 04:33:18;;;;;;;8.10;7.30;;;7.20;99.90;;;;;;4934792;29;20181;-82
2024/03/20 04:35:43;;;;;;;9.67;7.33;;;8.00;99.90;;;;;;4936609;28;20237;-83
2024/03/20 04:38:09;;;;;;;9.73;7.77;;;7.90;99.90;;;;;;4939839;29;20285;-82
2024/03/20 04:40:35;;;;;;;8.50;7.70;;;7.80;99.90;;;;;;4941680;29;20216;-84
2024/03/20 04:43:00;;;;;;;8.93;7.20;;;8.20;99.90;;;;;;4942679;28;20195;-83
2024/03/20 04:45:26;;;;;;;7.73;6.97;;;7.90;99.90;;;;;;4940117;28;20436;-83
2024/03/20 04:47:52;;;;;;;7.90;7.20;;;7.80;99.90;;;;;;4938713;28;20433;-83
2024/03/20 04:50:17;;;;;;;8.70;7.53;;;7.30;99.90;;;;;;4937339;29;20192;-84
2024/03/20 04:52:43;;;;;;;7.70;6.97;;;8.00;99.90;;;;;;4939378;29;20185;-83
2024/03/20 04:55:08;;;;;;;9.67;7.87;;;7.70;99.90;;;;;;4939991;29;20196;-83
2024/03/20 04:57:34;;;;;;;8.30;7.40;;;7.70;99.90;;;;;;4938646;28;20694;-85
2024/03/20 05:00:00;;;;;;;9.83;7.33;;;8.10;99.90;;;;;;4956307;28;20268;-85
2024/03/20 05:02:25;;;;;;;10.00;6.30;;;7.60;99.90;;;;;;4938949;28;20181;-83
2024/03/20 05:04:51;;;;;;;7.53;6.73;;;7.50;99.90;;;;;;4938005;29;20297;-83
2024/03/20 05:07:17;;;;;;;7.87;7.17;;;7.50;99.90;;;;;;4938550;28;20244;-84
2024/03/20 05:09:42;;;;;;;10.40;7.20;;;7.40;99.90;;;;;;4938705;29;20260;-83
2024/03/20 05:12:08;;;;;;;8.63;7.83;;;7.60;99.90;;;;;;4937245;29;20703;-83
2024/03/20 05:14:33;;;;;;;8.20;7.03;;;7.60;99.90;;;;;;4934235;28;20201;-84
2024/03/20 05:17:00;;;;;;;8.13;7.30;;;7.30;99.90;;;;;;4936853;28;20224;-83
2024/03/20 05:19:29;;;;;;;9.35;8.35;;;7.40;99.90;;;;;;4935532;29;20185;-83
2024/03/20 05:21:54;;;;;;;8.40;7.55;;;7.40;99.90;;;;;;4934460;29;20197;-82
2024/03/20 05:24:20;;;;;;;9.60;7.73;;;7.00;99.90;;;;;;4932860;29;20583;-85
2024/03/20 05:26:46;;;;;;;11.50;7.80;;;7.50;99.90;;;;;;4937717;29;20209;-86
2024/03/20 05:29:12;;;;;;;8.00;7.20;;;7.10;99.90;;;;;;4937567;28;20247;-83
2024/03/20 05:31:38;;;;;;;7.85;6.68;;;7.30;99.90;;;;;;4933168;29;20248;-85
2024/03/20 05:34:04;;;;;;;9.55;7.30;;;7.30;99.90;;;;;;4929298;28;20283;-86
2024/03/20 05:36:30;;;;;;;7.95;7.15;;;7.20;99.90;;;;;;4937160;28;20769;-83
2024/03/20 05:38:56;;;;;;;8.33;7.50;;;7.30;99.90;;;;;;4935042;29;20182;-83
2024/03/20 05:41:22;;;;;;;8.60;7.70;;;7.80;99.90;;;;;;4937190;28;20189;-85
2024/03/20 05:43:47;;;;;;;9.20;6.80;;;7.20;99.90;;;;;;4934839;29;20667;-84
2024/03/20 05:46:52;;;;;;;7.90;7.10;;;7.60;99.90;;;;;;4936665;29;20212;-88
2024/03/20 05:49:18;;;;;;;7.85;6.55;;;7.40;99.90;;;;;;4936818;29;20196;-87
2024/03/20 05:51:45;;;;;;;8.93;7.00;;;7.80;99.90;;;;;;4934854;29;20209;-87
2024/03/20 05:54:11;;;;;;;9.15;8.25;;;7.50;99.90;;;;;;4931024;29;20186;-87
2024/03/20 05:56:36;;;;;;;9.37;7.23;;;8.00;99.90;;;;;;4934925;29;20217;-87
2024/03/20 05:59:02;;;;;;;9.43;8.37;;;7.70;99.90;;;;;;4934904;29;20288;-87
2024/03/20 06:01:28;;;;;;;9.10;6.93;;;7.30;99.90;;;;;;4935375;29;20201;-87
2024/03/20 06:03:53;;;;;;;8.63;7.70;;;8.10;99.90;;;;;;4934703;28;20196;-88
2024/03/20 06:06:19;;;;;;;9.40;8.00;;;7.90;99.90;;;;;;4936696;29;20435;-87
2024/03/20 06:08:46;;;;;;;8.73;7.63;;;8.20;99.90;;;;;;4934986;29;20395;-88
2024/03/20 06:11:12;;;;;;;8.30;7.50;;;7.60;99.90;;;;;;4935797;29;20185;-87
2024/03/20 06:13:37;;;;;;;13.70;8.20;;;7.80;99.90;;;;;;4930929;29;20193;-86
2024/03/20 06:16:03;;;;;;;10.33;7.33;;;8.00;99.90;;;;;;4932667;29;20480;-87
2024/03/20 06:18:28;;;;;;;9.60;8.40;;;7.80;99.90;;;;;;4936544;29;20185;-87
2024/03/20 06:20:55;;;;;;;12.10;8.80;;;8.20;99.90;;;;;;4935420;29;20351;-86
2024/03/20 06:23:21;;;;;;;10.57;8.30;;;7.80;99.90;;;;;;4934744;29;20181;-87
2024/03/20 06:25:46;;;;;;;8.80;7.50;;;7.70;99.90;;;;;;4933688;29;20205;-88
2024/03/20 06:28:12;;;;;;;9.47;8.23;;;8.10;99.90;;;;;;4934838;29;20423;-89
2024/03/20 06:30:37;;;;;;;9.40;7.70;;;8.20;99.90;;;;;;4934819;29;20646;-87
2024/03/20 06:33:03;;;;;;;8.70;7.63;;;8.00;99.90;;;;;;4933551;29;20189;-87
2024/03/20 06:35:28;;;;;;;11.07;7.57;;;8.40;99.90;;;;;;4938391;28;20188;-87
2024/03/20 06:37:54;;;;;;;12.27;8.27;;;8.40;99.90;;;;;;4935589;29;20208;-87
2024/03/20 06:40:20;;;;;;;9.00;7.37;;;8.60;99.90;;;;;;4935572;28;20185;-87
2024/03/20 06:42:46;;;;;;;7.18;6.47;;;8.90;99.90;;;;;;4937463;29;20416;-87
2024/03/20 06:45:12;;;;;;;7.63;6.83;;;9.20;99.90;;;;;;4957369;28;20189;-86
2024/03/20 06:47:37;;;;;;;8.87;7.03;;;9.50;99.90;;;;;;4957103;28;20205;-87
2024/03/20 06:50:06;;;;;;;7.90;7.10;;;9.20;99.90;;;;;;4957488;28;20205;-87
2024/03/20 06:52:38;;;;;;;8.45;7.65;;;9.70;99.90;;;;;;4956084;29;20209;-87
2024/03/20 06:55:06;;;;;;;11.85;7.22;;;9.70;99.90;;;;;;4954049;29;20192;-86
2024/03/20 06:57:32;;;;;;;8.75;7.13;;;9.90;99.90;;;;;;4948365;29;20292;-87
2024/03/20 06:59:57;;;;;;;11.87;8.17;;;9.50;99.90;;;;;;4938713;29;20269;-87
2024/03/20 07:02:23;;;;;;;9.50;7.10;;;10.40;99.90;;;;;;4934887;29;20522;-87
2024/03/20 07:04:49;;;;;;;7.87;7.10;;;10.40;99.90;;;;;;4933219;29;20209;-87
2024/03/20 07:07:14;;;;;;;8.03;7.23;;;10.60;99.90;;;;;;4936621;29;20303;-87
2024/03/20 07:09:40;;;;;;;7.80;7.10;;;11.80;99.90;;;;;;4941657;29;20196;-86
2024/03/20 07:12:06;;;;;;;13.63;7.10;;;13.20;99.90;;;;;;4935790;29;20268;-87
2024/03/20 07:14:31;;;;;;;6.90;6.20;;;13.90;99.90;;;;;;4934228;29;20192;-87
2024/03/20 07:16:57;;;;;;;7.10;6.43;;;14.90;99.90;;;;;;4932330;28;20568;-87
2024/03/20 07:19:23;;;;;;;8.33;7.53;;;16.50;99.90;;;;;;4934436;29;20448;-87
2024/03/20 07:21:49;;;;;;;8.80;8.00;;;17.70;97.10;;;;;;4932738;29;20239;-87
2024/03/20 07:24:15;;;;;;;7.13;6.10;;;18.10;94.60;;;;;;4933879;29;20658;-87
2024/03/20 07:26:40;;;;;;;8.27;7.57;;;18.80;93.80;;;;;;4933081;29;20232;-87
2024/03/20 07:29:07;;;;;;;7.37;6.67;;;19.20;92.80;;;;;;4929004;29;20271;-87
2024/03/20 07:31:37;;;;;;;7.40;6.75;;;19.30;91.70;;;;;;4934905;29;20205;-87
2024/03/20 07:34:05;;;;;;;8.50;7.57;;;20.00;91.20;;;;;;4933778;28;20212;-87
2024/03/20 07:36:34;;;;;;;9.32;7.68;;;20.60;89.90;;;;;;4936422;29;20215;-87
2024/03/20 07:39:02;;;;;;;7.65;6.95;;;20.90;86.00;;;;;;4948476;28;20263;-88
2024/03/20 07:41:28;;;;;;;8.23;7.43;;;21.30;85.50;;;;;;4934003;29;20191;-87
2024/03/20 07:43:54;;;;;;;10.00;8.40;;;21.90;81.10;;;;;;4931535;28;20444;-86
2024/03/20 07:46:19;;;;;;;10.63;7.90;;;22.50;80.10;;;;;;4932763;29;20263;-86
2024/03/20 07:48:46;;;;;;;9.97;8.97;;;22.80;77.50;;;;;;4933138;29;20868;-87
2024/03/20 07:51:14;;;;;;;8.67;7.97;;;22.80;76.20;;;;;;4935309;29;20188;-86
2024/03/20 07:53:41;;;;;;;8.23;7.53;;;23.50;75.30;;;;;;4945653;29;20449;-87
2024/03/20 07:56:06;;;;;;;10.77;8.40;;;23.20;74.20;;;;;;4933210;29;20840;-87
2024/03/20 07:58:32;;;;;;;8.97;8.17;;;22.90;73.60;;;;;;4934564;29;20647;-87
2024/03/20 08:00:58;;;;;;;8.97;8.17;;;23.40;73.70;;;;;;4932552;28;20383;-87
2024/03/20 08:03:24;;;;;;;9.40;8.40;;;23.80;72.10;;;;;;4933771;29;20226;-87
2024/03/20 08:05:50;;;;;;;8.47;7.67;;;24.10;70.50;;;;;;4931332;29;20931;-87
2024/03/20 08:08:15;;;;;;;10.10;8.50;;;24.70;70.10;;;;;;4932686;29;20467;-85
2024/03/20 08:10:41;;;;;;;9.40;8.07;;;25.40;67.60;;;;;;4931176;29;20196;-87
2024/03/20 08:13:09;;;;;;;9.13;7.77;;;25.00;65.40;;;;;;4932710;29;20196;-87
2024/03/20 08:15:35;;;;;;;8.37;7.70;;;24.50;65.40;;;;;;4945240;28;20284;-87
2024/03/20 08:18:00;;;;;;;9.23;8.07;;;24.60;65.80;;;;;;4930091;28;20566;-87
2024/03/20 08:20:26;;;;;;;9.30;8.27;;;24.40;66.20;;;;;;4930976;29;20454;-87
2024/03/20 08:22:51;;;;;;;7.77;7.00;;;24.70;66.30;;;;;;4932720;29;20198;-87
2024/03/20 08:25:20;;;;;;;8.40;7.60;;;24.50;66.00;;;;;;4932948;29;20191;-87
2024/03/20 08:27:45;;;;;;;8.33;7.67;;;24.20;66.60;;;;;;4930567;29;20624;-86
2024/03/20 08:30:13;;;;;;;8.77;7.80;;;24.70;66.80;;;;;;4932979;29;20545;-86
2024/03/20 08:32:39;;;;;;;8.47;7.67;;;23.80;65.90;;;;;;4929042;29;20224;-86
2024/03/20 08:35:07;;;;;;;10.90;7.70;;;23.90;67.70;;;;;;4937011;28;20458;-87
2024/03/20 08:37:33;;;;;;;8.10;7.40;;;23.30;68.10;;;;;;4934758;28;20293;-86
2024/03/20 08:40:01;;;;;;;7.47;6.80;;;23.70;68.80;;;;;;4932902;29;20470;-86
2024/03/20 08:42:27;;;;;;;10.30;8.07;;;23.30;68.20;;;;;;4934722;28;20536;-86
2024/03/20 08:44:53;;;;;;;8.40;7.70;;;22.70;69.10;;;;;;4930666;29;20689;-87
2024/03/20 08:47:18;;;;;;;10.47;9.50;;;22.80;69.40;;;;;;4933149;29;20502;-87
2024/03/20 08:49:44;;;;;;;8.90;8.10;;;23.30;71.00;;;;;;4933974;29;20444;-87
2024/03/20 08:52:12;;;;;;;9.20;7.43;;;23.10;70.40;;;;;;4932945;29;20189;-87
2024/03/20 08:54:43;;;;;;;8.63;7.70;;;23.40;70.40;;;;;;4932887;29;20292;-86
2024/03/20 08:57:11;;;;;;;7.73;7.00;;;22.30;70.00;;;;;;4932791;29;20511;-86
2024/03/20 08:59:37;;;;;;;8.63;7.00;;;24.20;73.00;;;;;;4937954;29;20456;-87
2024/03/20 09:02:03;;;;;;;8.80;8.10;;;22.60;71.00;;;;;;4948475;28;20885;-87
2024/03/20 09:04:29;;;;;;;7.33;6.73;;;22.10;70.60;;;;;;4931915;29;20192;-87
2024/03/20 09:06:57;;;;;;;7.00;6.40;;;21.90;72.40;;;;;;4933080;29;20512;-87
2024/03/20 09:09:23;;;;;;;8.17;7.53;;;22.00;71.40;;;;;;4948541;28;20814;-87
2024/03/20 09:11:48;;;;;;;14.03;7.30;;;21.90;72.80;;;;;;4932783;29;20774;-87
2024/03/20 09:14:14;;;;;;;7.83;7.10;;;22.20;72.30;;;;;;4949175;28;20228;-88
2024/03/20 09:16:40;;;;;;;8.00;6.77;;;22.70;72.80;;;;;;4933592;29;20213;-87
2024/03/20 09:19:06;;;;;;;8.07;6.20;;;22.40;72.10;;;;;;4931406;29;20441;-86
2024/03/20 09:21:38;;;;;;;7.20;6.50;;;22.70;72.10;;;;;;4933988;28;20199;-87
2024/03/20 09:24:05;;;;;;;8.03;7.23;;;22.50;71.90;;;;;;4937056;29;20688;-86
2024/03/20 09:26:32;;;;;;;7.23;6.63;;;22.70;71.40;;;;;;4936789;29;20464;-87
2024/03/20 09:28:57;;;;;;;7.17;6.47;;;22.70;70.00;;;;;;4934037;29;20452;-87
2024/03/20 09:31:23;;;;;;;6.23;5.70;;;22.30;70.10;;;;;;4951922;28;20976;-86
2024/03/20 09:33:48;;;;;;;6.53;6.03;;;22.40;71.70;;;;;;4934624;29;20195;-86
2024/03/20 09:36:14;;;;;;;7.00;6.10;;;22.20;71.30;;;;;;4936564;28;20202;-86
2024/03/20 09:38:39;;;;;;;6.90;6.20;;;22.70;71.40;;;;;;4936791;29;20185;-87
2024/03/20 09:41:13;;;;;;;7.37;6.10;;;22.00;71.30;;;;;;4936246;29;20185;-87
2024/03/20 09:43:39;;;;;;;7.07;6.47;;;22.10;71.50;;;;;;4935129;29;20282;-88
2024/03/20 09:46:05;;;;;;;7.30;6.60;;;21.40;72.70;;;;;;4956729;28;20475;-86
2024/03/20 09:48:32;;;;;;;25.77;23.33;;;21.60;73.70;;;;;;4936832;29;20185;-87
2024/03/20 09:50:58;;;;;;;6.57;6.00;;;22.20;73.90;;;;;;4936784;29;21061;-87
2024/03/20 09:53:24;;;;;;;8.13;7.33;;;22.70;72.00;;;;;;4932153;29;20519;-87
2024/03/20 09:55:50;;;;;;;7.30;6.70;;;22.60;70.60;;;;;;4937351;29;20551;-86
2024/03/20 09:58:16;;;;;;;10.43;9.43;;;23.40;69.70;;;;;;4937267;28;20211;-86
2024/03/20 10:00:41;;;;;;;11.50;10.47;;;24.40;67.10;;;;;;4932235;29;20440;-86
2024/03/20 10:03:09;;;;;;;6.90;5.93;;;25.50;63.80;;;;;;4935660;28;20189;-86
2024/03/20 10:05:40;;;;;;;5.90;5.40;;;25.80;60.40;;;;;;4936578;28;20260;-87
2024/03/20 10:08:09;;;;;;;6.13;5.50;;;26.70;58.90;;;;;;4951382;28;20540;-87
2024/03/20 10:10:35;;;;;;;8.23;5.53;;;26.50;58.80;;;;;;4933950;29;21037;-86
2024/03/20 10:13:01;;;;;;;5.77;5.23;;;26.40;57.70;;;;;;4935166;29;20441;-87
2024/03/20 10:15:27;;;;;;;8.73;5.00;;;26.70;58.30;;;;;;4935399;28;20300;-86
2024/03/20 10:17:52;;;;;;;4.90;4.10;;;26.00;58.50;;;;;;4935094;29;20567;-86
2024/03/20 10:20:19;;;;;;;5.73;4.70;;;25.60;57.30;;;;;;4935763;29;20279;-86
2024/03/20 10:22:46;;;;;;;4.70;3.83;;;25.40;57.70;;;;;;4935172;29;20616;-86
2024/03/20 10:25:16;;;;;;;3.97;3.07;;;25.90;57.20;;;;;;4953548;29;20440;-87
2024/03/20 10:27:44;;;;;;;3.77;3.27;;;25.30;55.80;;;;;;4930702;29;20566;-86
2024/03/20 10:30:23;;;;;;;4.70;4.00;;;25.50;56.90;;;;;;4932368;28;20458;-86
2024/03/20 10:32:50;;;;;;;4.00;3.70;;;24.70;56.20;;;;;;4932485;28;20464;-86
2024/03/20 10:35:23;;;;;;;6.53;5.90;;;25.10;56.50;;;;;;4935605;28;20451;-86
2024/03/20 10:37:49;;;;;;;5.83;3.73;;;23.40;54.30;;;;;;4935640;29;20493;-87
2024/03/20 10:40:19;;;;;;;5.90;4.00;;;25.10;56.50;;;;;;4933108;29;20452;-86
2024/03/20 10:42:46;;;;;;;4.27;3.80;;;24.90;56.40;;;;;;4933819;28;20462;-88
2024/03/20 10:45:13;;;;;;;3.90;3.57;;;24.80;56.80;;;;;;4934393;29;20505;-86
2024/03/20 10:47:40;;;;;;;4.73;4.00;;;24.30;57.70;;;;;;4952059;28;21049;-86
2024/03/20 10:50:14;;;;;;;5.47;3.50;;;24.70;57.60;;;;;;4933697;29;20532;-87
2024/03/20 10:52:44;;;;;;;2.60;2.40;;;24.80;56.70;;;;;;4945734;28;20987;-87
2024/03/20 10:55:13;;;;;;;2.90;2.70;;;24.00;55.80;;;;;;4931764;29;20954;-86
2024/03/20 10:57:39;;;;;;;4.67;3.57;;;23.70;55.80;;;;;;4949213;28;20575;-86
2024/03/20 11:00:14;;;;;;;2.87;2.67;;;24.30;56.20;;;;;;4938225;29;20460;-86
2024/03/20 11:02:39;;;;;;;5.33;3.30;;;23.80;56.30;;;;;;4930949;29;20469;-87
2024/03/20 11:05:40;;;;;;;1.90;1.80;;;24.60;55.60;;;;;;4935253;28;20927;-87
2024/03/20 11:08:07;;;;;;;2.17;1.97;;;24.90;53.40;;;;;;4933100;29;20441;-89
2024/03/20 11:10:35;;;;;;;2.43;2.23;;;25.30;53.10;;;;;;4935224;29;20451;-90
2024/03/20 11:13:01;;;;;;;3.50;2.10;;;25.70;52.40;;;;;;4935118;29;20997;-89
2024/03/20 11:15:28;;;;;;;2.20;1.80;;;26.00;51.00;;;;;;4935148;28;20464;-89
2024/03/20 11:17:53;;;;;;;1.93;1.63;;;26.00;50.20;;;;;;4934662;29;20480;-88
2024/03/20 11:20:31;;;;;;;6.03;2.00;;;25.80;50.70;;;;;;4934790;29;20822;-90
2024/03/20 11:22:58;;;;;;;2.20;1.93;;;25.10;50.30;;;;;;4931307;29;20665;-89
2024/03/20 11:25:23;;;;;;;2.00;1.83;;;24.70;50.90;;;;;;4936228;28;20535;-89
2024/03/20 11:27:50;;;;;;;1.80;1.70;;;25.20;51.80;;;;;;4938119;29;20278;-88
2024/03/20 11:30:15;;;;;;;2.00;1.67;;;25.10;49.90;;;;;;4919021;29;20218;-89
2024/03/20 11:32:41;;;;;;;1.93;1.73;;;24.70;50.20;;;;;;4937068;29;20892;-89
2024/03/20 11:35:13;;;;;;;2.00;1.80;;;24.60;50.50;;;;;;4934374;29;20435;-89
2024/03/20 11:37:40;;;;;;;1.90;1.77;;;24.50;52.00;;;;;;4936924;29;20223;-88
2024/03/20 11:40:10;;;;;;;2.30;2.10;;;23.90;52.70;;;;;;4934656;29;21013;-90
2024/03/20 11:42:35;;;;;;;2.50;2.30;;;23.30;52.70;;;;;;4935107;29;20444;-90
2024/03/20 11:45:03;;;;;;;1.63;1.53;;;23.90;52.60;;;;;;4930683;29;21041;-88
2024/03/20 11:47:29;;;;;;;1.53;1.43;;;23.40;51.90;;;;;;4937729;29;20613;-90
2024/03/20 11:49:56;;;;;;;2.67;1.97;;;23.10;52.80;;;;;;4933254;29;20528;-89
2024/03/20 11:52:23;;;;;;;1.63;1.50;;;23.50;53.90;;;;;;4936907;29;20271;-89
2024/03/20 11:54:49;;;;;;;1.50;1.40;;;23.30;53.60;;;;;;4934180;29;20981;-90
2024/03/20 11:57:16;;;;;;;1.63;1.13;;;23.30;52.70;;;;;;4935928;29;20523;-90
2024/03/20 11:59:45;;;;;;;2.63;1.60;;;22.90;52.00;;;;;;4936455;29;20862;-90
2024/03/20 12:02:14;;;;;;;2.43;1.70;;;23.80;52.30;;;;;;4937090;29;20460;-90
2024/03/20 12:04:39;;;;;;;4.57;2.83;;;25.30;53.30;;;;;;4921024;29;20877;-91
2024/03/20 12:07:24;;;;;;;2.90;2.40;;;23.70;52.70;;;;;;4936951;29;20584;-89
2024/03/20 12:09:49;;;;;;;2.00;1.90;;;23.50;53.30;;;;;;4935843;29;20554;-89
2024/03/20 12:12:15;;;;;;;1.93;1.67;;;23.80;52.70;;;;;;4936619;29;20447;-89
2024/03/20 12:14:40;;;;;;;1.77;1.57;;;23.20;52.90;;;;;;4935349;29;20218;-89
2024/03/20 12:17:10;;;;;;;1.90;1.70;;;22.70;53.90;;;;;;4936611;28;20929;-89
2024/03/20 12:19:36;;;;;;;2.37;1.50;;;22.80;53.30;;;;;;4937219;29;20181;-89
2024/03/20 12:22:04;;;;;;;1.90;1.60;;;23.00;54.90;;;;;;4934806;29;20815;-88
2024/03/20 12:24:30;;;;;;;1.57;1.47;;;22.70;54.70;;;;;;4933761;29;20189;-89
2024/03/20 12:26:55;;;;;;;1.50;1.40;;;23.00;54.90;;;;;;4929906;29;20525;-90
2024/03/20 12:29:21;;;;;;;4.93;1.43;;;23.00;54.90;;;;;;4935762;29;20188;-89
2024/03/20 12:31:47;;;;;;;1.30;1.20;;;22.90;54.00;;;;;;4938863;29;20559;-89
2024/03/20 12:34:12;;;;;;;2.70;1.50;;;24.40;54.70;;;;;;4938347;29;20569;-90
2024/03/20 12:36:38;;;;;;;1.50;1.37;;;22.50;53.50;;;;;;4941195;29;20205;-88
2024/03/20 12:39:05;;;;;;;1.60;1.50;;;23.30;54.90;;;;;;4938114;29;20261;-90
2024/03/20 12:41:30;;;;;;;1.33;1.23;;;24.30;56.00;;;;;;4939879;28;20480;-89
2024/03/20 12:43:57;;;;;;;1.50;1.40;;;22.50;54.30;;;;;;4942551;29;20576;-89
2024/03/20 12:46:23;;;;;;;1.70;1.30;;;22.70;54.30;;;;;;4942022;29;20218;-89